Time;durP1;ratioP1;P1;durP2;ratioP2;P2;SDS_P1;SDS_P2;PMS_P1;PMS_P2;Temp;Humidity;BMP_temperature;BMP_pressure;BME280_temperature;BME280_humidity;BME280_pressure;Samples;Min_cycle;Max_cycle;Signal;HPM_P1;HPM_P2
2022/11/17 00:01:12;;;;;;;5.60;2.60;;;9.40;99.90;;;;;;5053804;28;20198;-55
2022/11/17 00:03:38;;;;;;;4.50;2.40;;;9.40;99.90;;;;;;5054283;28;20215;-55
2022/11/17 00:06:06;;;;;;;5.87;2.80;;;9.30;99.90;;;;;;5054066;28;20662;-56
2022/11/17 00:08:34;;;;;;;5.27;2.33;;;9.40;99.90;;;;;;5053928;28;20202;-56
2022/11/17 00:11:01;;;;;;;3.43;2.07;;;9.40;99.90;;;;;;5053778;28;20225;-55
2022/11/17 00:16:13;;;;;;;4.93;2.80;;;9.40;99.90;;;;;;5054069;28;20328;-55
2022/11/17 00:21:25;;;;;;;3.77;2.20;;;9.60;99.90;;;;;;5053528;28;20220;-55
2022/11/17 00:23:54;;;;;;;2.60;2.33;;;9.60;99.90;;;;;;5054161;28;20214;-55
2022/11/17 00:26:23;;;;;;;3.77;2.40;;;9.60;99.90;;;;;;5054052;28;20584;-56
2022/11/17 00:28:53;;;;;;;4.50;2.10;;;9.50;99.90;;;;;;5053644;28;20209;-56
2022/11/17 00:34:06;;;;;;;3.00;2.30;;;9.60;99.90;;;;;;5054370;28;20665;-56
2022/11/17 00:36:36;;;;;;;3.03;2.00;;;9.70;99.90;;;;;;5053607;28;20206;-56
2022/11/17 00:39:05;;;;;;;3.20;1.93;;;9.60;99.90;;;;;;5053443;28;20244;-56
2022/11/17 00:41:32;;;;;;;4.20;2.10;;;9.60;99.90;;;;;;5053104;28;20539;-56
2022/11/17 00:43:58;;;;;;;3.33;2.20;;;9.60;99.90;;;;;;5053741;28;20213;-56
2022/11/17 00:46:25;;;;;;;4.10;2.00;;;9.60;99.90;;;;;;5053744;28;20214;-56
2022/11/17 00:48:52;;;;;;;4.47;2.07;;;9.60;99.90;;;;;;5053644;28;20233;-56
2022/11/17 00:51:20;;;;;;;4.27;1.90;;;9.60;99.90;;;;;;5052906;28;20240;-56
2022/11/17 00:53:48;;;;;;;2.50;1.97;;;9.70;99.90;;;;;;5053375;28;20753;-56
2022/11/17 00:56:16;;;;;;;3.17;2.20;;;9.70;99.90;;;;;;5053634;28;20210;-56
2022/11/17 00:58:43;;;;;;;5.20;2.20;;;9.70;99.90;;;;;;5053461;28;20201;-56
2022/11/17 01:01:10;;;;;;;3.40;2.53;;;9.70;99.90;;;;;;5053024;28;20224;-56
2022/11/17 01:03:36;;;;;;;4.80;2.30;;;9.70;99.90;;;;;;5053173;28;20202;-56
2022/11/17 01:06:05;;;;;;;4.00;2.30;;;9.80;99.90;;;;;;5053146;28;20508;-56
2022/11/17 01:08:32;;;;;;;3.53;2.23;;;9.90;99.90;;;;;;5052826;28;20201;-56
2022/11/17 01:11:08;;;;;;;3.50;2.10;;;9.90;99.90;;;;;;5053011;28;20609;-56
2022/11/17 01:13:36;;;;;;;2.43;1.90;;;10.00;99.90;;;;;;5053080;28;20209;-56
2022/11/17 01:16:06;;;;;;;2.47;1.83;;;10.20;99.90;;;;;;5053147;28;20209;-56
2022/11/17 01:18:33;;;;;;;3.73;2.10;;;10.20;99.90;;;;;;5052771;28;20205;-56
2022/11/17 01:21:05;;;;;;;4.50;2.43;;;10.20;99.90;;;;;;5051893;28;20294;-57
2022/11/17 01:23:32;;;;;;;3.23;2.10;;;10.10;99.90;;;;;;5053058;28;20227;-57
2022/11/17 01:26:05;;;;;;;3.23;2.07;;;10.20;99.90;;;;;;5052867;28;20209;-56
2022/11/17 01:28:31;;;;;;;4.33;1.60;;;10.10;99.90;;;;;;5052902;28;20201;-56
2022/11/17 01:31:04;;;;;;;3.50;1.97;;;10.30;99.90;;;;;;5052789;28;20236;-56
2022/11/17 01:33:32;;;;;;;2.50;1.90;;;10.30;99.90;;;;;;5052918;28;20213;-56
2022/11/17 01:36:01;;;;;;;3.50;2.00;;;10.50;99.90;;;;;;5052803;28;20209;-56
2022/11/17 01:38:29;;;;;;;2.87;1.80;;;10.60;99.90;;;;;;5052793;28;20680;-56
2022/11/17 01:40:58;;;;;;;4.27;1.90;;;10.50;99.90;;;;;;5052884;28;20261;-56
2022/11/17 01:43:39;;;;;;;3.73;1.90;;;10.50;99.90;;;;;;5052343;28;20205;-56
2022/11/17 01:46:13;;;;;;;3.30;2.00;;;10.50;99.90;;;;;;5052488;28;20211;-56
2022/11/17 01:48:41;;;;;;;4.57;2.00;;;10.40;99.90;;;;;;5051309;28;20575;-57
2022/11/17 01:51:08;;;;;;;3.87;1.93;;;10.30;99.90;;;;;;5052310;28;20229;-56
2022/11/17 01:53:35;;;;;;;4.50;2.00;;;10.20;99.90;;;;;;5052453;28;20201;-56
2022/11/17 01:56:10;;;;;;;3.00;1.97;;;10.10;99.90;;;;;;5052353;28;20292;-57
2022/11/17 01:58:40;;;;;;;3.27;2.20;;;10.00;99.90;;;;;;5052646;28;20334;-57
2022/11/17 02:01:08;;;;;;;3.03;2.33;;;10.00;99.90;;;;;;5051939;28;20197;-57
2022/11/17 02:03:36;;;;;;;5.07;2.57;;;10.00;99.90;;;;;;5052415;28;20347;-57
2022/11/17 02:06:07;;;;;;;5.37;2.40;;;10.20;99.90;;;;;;5052334;28;20232;-57
2022/11/17 02:08:37;;;;;;;2.70;2.20;;;10.30;99.90;;;;;;5052307;28;20210;-56
2022/11/17 02:11:11;;;;;;;4.03;2.43;;;10.30;99.90;;;;;;5052092;28;20225;-57
2022/11/17 02:13:40;;;;;;;3.33;2.27;;;10.30;99.90;;;;;;5052332;28;20210;-57
2022/11/17 02:16:11;;;;;;;2.60;2.30;;;10.30;99.90;;;;;;5052550;28;20205;-57
2022/11/17 02:18:38;;;;;;;4.77;2.40;;;10.30;99.90;;;;;;5052866;28;20200;-56
2022/11/17 02:21:32;;;;;;;3.33;2.17;;;10.40;99.90;;;;;;5052575;28;20201;-57
2022/11/17 02:24:28;;;;;;;3.47;2.27;;;10.40;99.90;;;;;;5052578;28;20226;-56
2022/11/17 02:27:23;;;;;;;4.53;2.63;;;10.50;99.90;;;;;;5052523;28;20291;-57
2022/11/17 02:29:58;;;;;;;2.70;2.23;;;10.50;99.90;;;;;;5052242;28;20241;-57
2022/11/17 02:32:31;;;;;;;3.27;2.17;;;10.50;99.90;;;;;;5054329;28;20696;-57
2022/11/17 02:35:08;;;;;;;2.90;2.50;;;10.30;99.90;;;;;;5056512;28;20201;-57
2022/11/17 02:37:47;;;;;;;4.17;2.50;;;10.20;99.90;;;;;;5057210;28;20217;-57
2022/11/17 02:40:22;;;;;;;3.70;2.50;;;10.20;99.90;;;;;;5056542;28;20615;-56
2022/11/17 02:45:47;;;;;;;4.43;2.50;;;9.80;99.90;;;;;;5056609;28;20275;-57
2022/11/17 02:48:17;;;;;;;3.43;2.30;;;9.70;99.90;;;;;;5056211;28;20205;-57
2022/11/17 02:50:46;;;;;;;4.50;2.70;;;9.70;99.90;;;;;;5056259;28;20225;-57
2022/11/17 02:53:14;;;;;;;4.53;2.50;;;9.60;99.90;;;;;;5055339;28;20780;-57
2022/11/17 02:55:40;;;;;;;3.60;2.10;;;9.50;99.90;;;;;;5056052;28;20293;-57
2022/11/17 02:58:11;;;;;;;4.43;2.40;;;9.40;99.90;;;;;;5055793;28;20673;-56
2022/11/17 03:00:49;;;;;;;5.23;2.50;;;9.40;99.90;;;;;;5055896;28;20236;-56
2022/11/17 03:03:27;;;;;;;4.43;2.17;;;9.30;99.90;;;;;;5055366;28;20556;-57
2022/11/17 03:06:02;;;;;;;2.13;1.87;;;9.20;99.90;;;;;;5055831;28;20233;-56
2022/11/17 03:08:37;;;;;;;3.13;2.10;;;9.10;99.90;;;;;;5055994;28;20205;-56
2022/11/17 03:11:06;;;;;;;2.67;1.90;;;9.10;99.90;;;;;;5055485;28;20205;-57
2022/11/17 03:13:45;;;;;;;2.27;1.97;;;9.20;99.90;;;;;;5054774;28;20217;-56
2022/11/17 03:16:23;;;;;;;4.10;2.07;;;9.30;99.90;;;;;;5055323;28;20296;-56
2022/11/17 03:19:01;;;;;;;4.13;2.10;;;9.40;99.90;;;;;;5055079;28;20210;-56
2022/11/17 03:21:31;;;;;;;2.60;2.10;;;9.50;99.90;;;;;;5054542;28;20235;-56
2022/11/17 03:24:05;;;;;;;2.57;2.10;;;9.70;99.90;;;;;;5055157;28;20201;-57
2022/11/17 03:26:36;;;;;;;3.50;2.00;;;9.90;99.90;;;;;;5055079;28;20300;-56
2022/11/17 03:29:06;;;;;;;2.00;1.60;;;10.00;99.90;;;;;;5054960;28;20225;-57
2022/11/17 03:31:36;;;;;;;2.97;1.67;;;10.30;99.90;;;;;;5054464;28;20248;-56
2022/11/17 03:34:06;;;;;;;3.33;1.97;;;10.50;99.90;;;;;;5054848;28;20205;-56
2022/11/17 03:36:37;;;;;;;1.60;1.10;;;10.80;99.90;;;;;;5055096;28;20546;-57
2022/11/17 03:39:08;;;;;;;1.90;1.40;;;10.90;99.90;;;;;;5054834;28;20237;-57
2022/11/17 03:41:39;;;;;;;2.30;1.30;;;11.10;99.90;;;;;;5054479;28;20205;-57
2022/11/17 03:44:06;;;;;;;2.43;1.20;;;11.30;99.90;;;;;;5054401;28;20209;-56
2022/11/17 03:46:36;;;;;;;2.27;1.30;;;11.30;99.90;;;;;;5055005;28;20205;-57
2022/11/17 03:49:10;;;;;;;1.47;0.90;;;11.50;99.90;;;;;;5054847;28;20238;-57
2022/11/17 03:51:37;;;;;;;2.10;1.20;;;11.60;99.90;;;;;;5054380;28;20221;-57
2022/11/17 03:54:04;;;;;;;2.60;1.20;;;11.60;99.90;;;;;;5054682;28;20214;-58
2022/11/17 03:56:40;;;;;;;2.90;1.00;;;11.70;99.90;;;;;;5054900;28;20215;-57
2022/11/17 03:59:13;;;;;;;4.13;1.10;;;11.70;99.90;;;;;;5054485;28;20771;-56
2022/11/17 04:01:42;;;;;;;2.30;1.17;;;11.90;99.90;;;;;;5054777;28;20198;-57
2022/11/17 04:04:14;;;;;;;2.13;1.10;;;11.90;99.90;;;;;;5055353;28;20304;-57
2022/11/17 04:06:40;;;;;;;2.70;1.40;;;11.90;99.90;;;;;;5054712;28;20670;-57
2022/11/17 04:09:07;;;;;;;1.40;1.10;;;12.00;99.90;;;;;;5054598;28;20225;-57
2022/11/17 04:17:04;;;;;;;1.57;1.20;;;12.00;99.90;;;;;;5054304;28;20581;-57
2022/11/17 04:19:31;;;;;;;3.17;1.60;;;12.00;99.90;;;;;;5054161;28;20233;-57
2022/11/17 04:21:57;;;;;;;2.37;1.50;;;12.00;99.90;;;;;;5053674;28;20206;-57
2022/11/17 04:24:24;;;;;;;4.00;1.57;;;12.20;99.90;;;;;;5053968;28;20657;-57
2022/11/17 04:29:35;;;;;;;2.23;1.40;;;12.20;99.90;;;;;;5053971;28;20224;-57
2022/11/17 04:32:04;;;;;;;2.00;1.37;;;12.20;99.90;;;;;;5053478;28;20221;-57
2022/11/17 04:34:30;;;;;;;1.73;1.47;;;12.20;99.90;;;;;;5054144;28;20293;-57
2022/11/17 04:36:57;;;;;;;2.60;1.60;;;12.20;99.90;;;;;;5053601;28;20206;-57
2022/11/17 04:39:24;;;;;;;3.00;1.23;;;12.20;99.90;;;;;;5053488;28;20253;-57
2022/11/17 04:41:52;;;;;;;3.23;1.43;;;12.20;99.90;;;;;;5053356;28;20205;-57
2022/11/17 04:44:20;;;;;;;2.67;1.60;;;12.30;99.90;;;;;;5053784;28;20232;-58
2022/11/17 04:46:47;;;;;;;2.30;1.50;;;12.30;99.90;;;;;;5053625;28;20666;-57
2022/11/17 04:49:16;;;;;;;3.40;2.00;;;12.30;99.90;;;;;;5053429;28;20226;-57
2022/11/17 04:51:44;;;;;;;1.80;1.60;;;12.30;99.90;;;;;;5053161;28;20267;-58
2022/11/17 04:54:13;;;;;;;3.13;2.00;;;12.30;99.90;;;;;;5053427;28;20212;-57
2022/11/17 04:56:40;;;;;;;3.27;2.90;;;12.30;99.90;;;;;;5052867;28;20576;-57
2022/11/17 04:59:07;;;;;;;2.40;1.40;;;12.30;99.90;;;;;;5053642;28;20236;-56
2022/11/17 05:01:35;;;;;;;3.13;1.63;;;12.30;99.90;;;;;;5053095;28;20205;-57
2022/11/17 05:04:03;;;;;;;3.00;1.30;;;12.30;99.90;;;;;;5053567;28;20225;-56
2022/11/17 05:06:33;;;;;;;3.00;2.00;;;12.30;99.90;;;;;;5053503;28;20259;-56
2022/11/17 05:09:01;;;;;;;2.07;1.50;;;12.30;99.90;;;;;;5053485;28;20598;-57
2022/11/17 05:14:16;;;;;;;3.30;1.40;;;12.50;99.90;;;;;;5053392;28;20208;-58
2022/11/17 05:19:29;;;;;;;2.77;1.50;;;12.40;99.90;;;;;;5045676;28;20702;-56
2022/11/17 05:21:57;;;;;;;1.90;1.47;;;12.40;99.90;;;;;;5052771;28;20201;-57
2022/11/17 05:24:23;;;;;;;1.97;1.23;;;12.40;99.90;;;;;;5053608;28;20214;-56
2022/11/17 05:26:50;;;;;;;1.97;1.30;;;12.40;99.90;;;;;;5053119;28;20615;-56
2022/11/17 05:29:19;;;;;;;2.50;1.50;;;12.40;99.90;;;;;;5053252;28;20226;-56
2022/11/17 05:31:47;;;;;;;4.60;3.00;;;12.30;99.90;;;;;;5052531;28;20225;-58
2022/11/17 05:34:16;;;;;;;3.37;1.70;;;12.30;99.90;;;;;;5053056;28;20212;-57
2022/11/17 05:36:43;;;;;;;4.17;2.37;;;12.30;99.90;;;;;;5052850;28;20728;-57
2022/11/17 05:39:12;;;;;;;2.80;1.50;;;12.30;99.90;;;;;;5052722;28;20250;-56
2022/11/17 05:41:39;;;;;;;4.70;2.67;;;12.40;99.90;;;;;;5052442;28;20209;-56
2022/11/17 05:44:06;;;;;;;4.40;2.23;;;12.40;99.90;;;;;;5052798;28;20213;-56
2022/11/17 05:46:33;;;;;;;2.83;1.50;;;12.40;99.90;;;;;;5052833;28;20221;-56
2022/11/17 05:49:00;;;;;;;2.43;1.53;;;12.40;99.90;;;;;;5052565;28;20232;-56
2022/11/17 05:51:27;;;;;;;1.53;1.30;;;12.30;99.90;;;;;;5052723;28;20208;-56
2022/11/17 05:53:53;;;;;;;2.27;1.37;;;12.30;99.90;;;;;;5052640;28;20760;-56
2022/11/17 05:56:35;;;;;;;1.87;1.30;;;12.20;99.90;;;;;;5052710;28;20205;-56
2022/11/17 05:59:13;;;;;;;2.70;1.40;;;12.20;99.90;;;;;;5052585;28;20228;-56
2022/11/17 06:01:46;;;;;;;4.63;1.30;;;12.20;99.90;;;;;;5052060;28;20573;-56
2022/11/17 06:04:16;;;;;;;2.53;1.20;;;12.30;99.90;;;;;;5052580;28;20233;-56
2022/11/17 06:06:45;;;;;;;2.10;1.70;;;12.30;99.90;;;;;;5052984;28;20703;-56
2022/11/17 06:09:12;;;;;;;3.77;2.40;;;12.30;99.90;;;;;;5052145;28;20226;-57
2022/11/17 06:11:40;;;;;;;2.30;1.57;;;12.40;99.90;;;;;;5052021;28;20202;-56
2022/11/17 06:14:07;;;;;;;3.20;1.90;;;12.30;99.90;;;;;;5052411;28;20206;-56
2022/11/17 06:16:38;;;;;;;2.80;1.53;;;12.40;99.90;;;;;;5052377;28;20206;-56
2022/11/17 06:19:09;;;;;;;9.43;6.07;;;12.40;99.90;;;;;;5052419;28;20591;-57
2022/11/17 06:21:36;;;;;;;3.57;2.07;;;12.40;99.90;;;;;;5051959;28;20206;-57
2022/11/17 06:24:07;;;;;;;3.00;1.67;;;12.50;99.90;;;;;;5052442;28;20296;-57
2022/11/17 06:26:34;;;;;;;2.77;1.70;;;12.50;99.90;;;;;;5052448;28;20694;-56
2022/11/17 06:29:04;;;;;;;4.50;2.23;;;12.60;99.90;;;;;;5052233;28;20309;-57
2022/11/17 06:31:32;;;;;;;3.10;2.43;;;12.60;99.90;;;;;;5052346;28;20696;-56
2022/11/17 06:34:01;;;;;;;3.27;2.10;;;12.70;99.90;;;;;;5052157;28;20252;-56
2022/11/17 06:36:28;;;;;;;2.13;1.80;;;12.70;99.90;;;;;;5052267;28;20202;-56
2022/11/17 06:38:55;;;;;;;3.23;1.60;;;12.70;99.90;;;;;;5052074;28;20328;-57
2022/11/17 06:41:22;;;;;;;4.33;2.20;;;12.70;99.90;;;;;;5051807;28;20214;-56
2022/11/17 06:43:48;;;;;;;1.77;1.23;;;12.70;99.90;;;;;;5051335;28;20658;-56
2022/11/17 06:46:18;;;;;;;2.57;1.63;;;12.60;99.90;;;;;;5051941;28;20225;-57
2022/11/17 06:48:45;;;;;;;1.97;1.20;;;12.60;99.90;;;;;;5051903;28;20205;-57
2022/11/17 06:51:12;;;;;;;2.37;1.70;;;12.70;99.90;;;;;;5051453;28;20569;-57
2022/11/17 06:53:39;;;;;;;1.77;1.20;;;12.70;99.90;;;;;;5050878;28;20279;-57
2022/11/17 06:56:07;;;;;;;8.37;3.43;;;12.70;99.90;;;;;;5051753;28;20587;-56
2022/11/17 06:58:35;;;;;;;1.70;1.30;;;12.70;99.90;;;;;;5051824;28;20226;-56
2022/11/17 07:01:04;;;;;;;8.27;4.50;;;12.70;99.90;;;;;;5051857;28;20209;-56
2022/11/17 07:03:33;;;;;;;4.23;2.33;;;12.70;99.90;;;;;;5051053;28;20733;-56
2022/11/17 07:06:01;;;;;;;1.83;1.17;;;12.80;99.90;;;;;;5051637;28;20296;-56
2022/11/17 07:08:28;;;;;;;6.47;4.40;;;12.90;99.90;;;;;;5051708;28;20205;-56
2022/11/17 07:10:55;;;;;;;2.93;1.60;;;13.00;99.90;;;;;;5051422;28;20228;-56
2022/11/17 07:13:23;;;;;;;2.03;1.30;;;13.10;99.90;;;;;;5050950;28;20235;-56
2022/11/17 07:15:51;;;;;;;1.53;1.10;;;13.20;99.90;;;;;;5051719;28;20210;-56
2022/11/17 07:18:18;;;;;;;2.67;1.10;;;13.20;99.90;;;;;;5052252;28;20208;-56
2022/11/17 07:20:48;;;;;;;1.70;1.10;;;13.20;99.90;;;;;;5055018;28;20713;-56
2022/11/17 07:23:15;;;;;;;2.10;1.10;;;13.30;99.90;;;;;;5055174;28;20296;-57
2022/11/17 07:25:42;;;;;;;1.20;1.00;;;13.30;99.90;;;;;;5055003;28;20210;-56
2022/11/17 07:28:09;;;;;;;6.33;3.87;;;13.30;99.90;;;;;;5055214;28;20240;-57
2022/11/17 07:30:35;;;;;;;2.33;1.50;;;13.40;99.90;;;;;;5054954;28;20233;-56
2022/11/17 07:33:02;;;;;;;2.40;1.40;;;13.40;99.90;;;;;;5054296;28;20225;-56
2022/11/17 07:35:29;;;;;;;2.07;1.30;;;13.40;99.90;;;;;;5055045;28;20399;-56
2022/11/17 07:38:01;;;;;;;2.97;1.10;;;13.30;99.90;;;;;;5054407;28;20202;-56
2022/11/17 07:40:28;;;;;;;3.00;0.97;;;13.40;99.90;;;;;;5055633;28;20295;-56
2022/11/17 07:42:55;;;;;;;1.37;0.90;;;13.40;99.90;;;;;;5054300;28;20202;-57
2022/11/17 07:45:23;;;;;;;4.50;1.00;;;13.50;99.90;;;;;;5054511;28;20644;-56
2022/11/17 07:47:56;;;;;;;2.37;1.30;;;13.50;99.90;;;;;;5055166;28;20681;-56
2022/11/17 07:50:23;;;;;;;1.47;1.10;;;13.60;99.90;;;;;;5054768;28;20229;-56
2022/11/17 07:52:51;;;;;;;1.53;0.93;;;13.70;99.90;;;;;;5054275;28;20232;-56
2022/11/17 07:55:20;;;;;;;1.70;0.80;;;13.70;99.90;;;;;;5055034;28;20214;-56
2022/11/17 07:57:47;;;;;;;2.90;1.07;;;13.80;99.90;;;;;;5054627;28;20584;-56
2022/11/17 08:00:15;;;;;;;1.10;0.70;;;14.00;99.90;;;;;;5054604;28;20705;-56
2022/11/17 08:02:42;;;;;;;3.67;0.97;;;13.90;99.90;;;;;;5054183;28;20201;-57
2022/11/17 08:05:09;;;;;;;4.33;1.30;;;14.00;99.90;;;;;;5054443;28;20212;-56
2022/11/17 08:07:36;;;;;;;3.13;1.00;;;14.00;99.90;;;;;;5054340;28;20685;-56
2022/11/17 08:10:03;;;;;;;2.57;1.00;;;14.00;99.90;;;;;;5054009;28;20279;-56
2022/11/17 08:12:31;;;;;;;4.37;0.90;;;14.10;99.90;;;;;;5054269;28;20222;-56
2022/11/17 08:14:58;;;;;;;2.07;1.07;;;14.10;99.90;;;;;;5055262;28;20206;-56
2022/11/17 08:17:25;;;;;;;3.73;1.50;;;14.20;99.90;;;;;;5055182;28;20205;-56
2022/11/17 08:19:51;;;;;;;4.90;1.10;;;14.20;99.90;;;;;;5054323;28;20232;-56
2022/11/17 08:22:18;;;;;;;4.73;1.23;;;14.10;99.90;;;;;;5054113;28;20202;-56
2022/11/17 08:24:45;;;;;;;1.90;1.10;;;14.10;99.90;;;;;;5053876;28;20216;-56
2022/11/17 08:27:12;;;;;;;1.30;0.67;;;14.10;99.90;;;;;;5053960;28;20206;-56
2022/11/17 08:29:40;;;;;;;2.73;1.30;;;14.10;99.90;;;;;;5053959;28;20240;-56
2022/11/17 08:32:07;;;;;;;3.53;1.00;;;14.20;99.90;;;;;;5053421;28;20559;-56
2022/11/17 08:34:33;;;;;;;1.73;1.03;;;14.30;99.90;;;;;;5054217;28;20240;-56
2022/11/17 08:37:00;;;;;;;2.10;0.90;;;14.30;99.90;;;;;;5054034;28;20284;-57
2022/11/17 08:39:27;;;;;;;4.13;1.50;;;14.40;99.90;;;;;;5053902;28;20237;-56
2022/11/17 08:41:54;;;;;;;1.37;1.00;;;14.40;99.90;;;;;;5053256;28;20209;-56
2022/11/17 08:44:21;;;;;;;2.73;0.90;;;14.30;99.90;;;;;;5053838;28;20206;-56
2022/11/17 08:46:49;;;;;;;2.27;0.87;;;14.30;99.90;;;;;;5053461;28;20210;-57
2022/11/17 08:49:16;;;;;;;3.03;1.00;;;14.30;99.90;;;;;;5053598;28;20614;-56
2022/11/17 08:51:43;;;;;;;3.07;1.00;;;14.30;99.90;;;;;;5053760;28;20212;-57
2022/11/17 08:54:12;;;;;;;3.00;1.10;;;14.20;99.90;;;;;;5053617;28;20222;-56
2022/11/17 08:56:39;;;;;;;3.00;1.30;;;14.20;99.90;;;;;;5053565;28;20697;-56
2022/11/17 08:59:06;;;;;;;3.13;1.20;;;14.20;99.90;;;;;;5054138;28;20225;-57
2022/11/17 09:01:32;;;;;;;1.13;0.70;;;14.20;99.90;;;;;;5053381;28;20205;-57
2022/11/17 09:04:01;;;;;;;4.00;0.80;;;14.20;99.90;;;;;;5053224;28;20217;-57
2022/11/17 09:06:27;;;;;;;5.53;1.30;;;14.10;99.90;;;;;;5053157;28;20212;-57
2022/11/17 09:08:55;;;;;;;2.40;0.77;;;14.10;99.90;;;;;;5053348;28;20230;-57
2022/11/17 09:11:22;;;;;;;4.27;2.33;;;14.00;99.90;;;;;;5053318;28;20213;-57
2022/11/17 09:13:49;;;;;;;1.93;0.70;;;14.00;99.90;;;;;;5052768;28;20225;-57
2022/11/17 09:16:18;;;;;;;2.93;0.80;;;13.80;99.90;;;;;;5053251;28;20733;-55
2022/11/17 09:18:45;;;;;;;2.73;0.67;;;13.70;99.90;;;;;;5052729;28;20209;-55
2022/11/17 09:21:15;;;;;;;2.30;0.63;;;13.70;99.90;;;;;;5053429;28;20213;-54
2022/11/17 09:23:42;;;;;;;3.37;1.20;;;13.70;99.90;;;;;;5052879;28;20232;-55
2022/11/17 09:26:12;;;;;;;3.27;1.43;;;13.80;99.90;;;;;;5053409;28;20206;-55
2022/11/17 09:28:39;;;;;;;4.03;2.00;;;13.90;99.90;;;;;;5053625;28;20201;-55
2022/11/17 09:31:07;;;;;;;1.77;0.87;;;14.00;99.90;;;;;;5053651;28;20256;-55
2022/11/17 09:33:34;;;;;;;1.97;1.10;;;14.20;99.90;;;;;;5052614;28;20221;-56
2022/11/17 09:36:01;;;;;;;1.93;0.77;;;14.30;99.90;;;;;;5053367;28;20245;-55
2022/11/17 09:38:29;;;;;;;2.77;1.03;;;14.40;99.90;;;;;;5052840;28;20220;-55
2022/11/17 09:40:57;;;;;;;1.63;0.97;;;14.50;99.90;;;;;;5052017;28;20262;-55
2022/11/17 09:43:28;;;;;;;2.27;0.80;;;14.60;99.90;;;;;;5052667;28;20588;-55
2022/11/17 09:46:02;;;;;;;1.87;0.80;;;14.60;99.90;;;;;;5052788;28;20262;-57
2022/11/17 09:48:39;;;;;;;2.40;1.07;;;14.60;99.90;;;;;;5052712;28;20228;-56
2022/11/17 09:51:11;;;;;;;3.00;0.80;;;14.60;99.90;;;;;;5052685;28;20209;-55
2022/11/17 09:53:44;;;;;;;2.80;0.70;;;14.60;99.90;;;;;;5052590;28;20248;-55
2022/11/17 09:56:13;;;;;;;2.27;0.67;;;14.50;99.90;;;;;;5053058;28;20300;-55
2022/11/17 09:58:44;;;;;;;3.30;0.80;;;14.50;99.90;;;;;;5052753;28;20216;-55
2022/11/17 10:01:13;;;;;;;2.73;0.73;;;14.60;99.90;;;;;;5052650;28;20689;-55
2022/11/17 10:03:43;;;;;;;2.03;0.83;;;14.70;99.90;;;;;;5052174;28;20205;-55
2022/11/17 10:06:14;;;;;;;1.80;0.83;;;14.80;99.90;;;;;;5052806;28;20656;-55
2022/11/17 10:08:47;;;;;;;2.67;0.53;;;14.80;99.90;;;;;;5052986;28;20561;-55
2022/11/17 10:13:57;;;;;;;2.67;0.90;;;14.90;99.90;;;;;;5052616;28;20292;-57
2022/11/17 10:16:24;;;;;;;3.20;0.57;;;14.90;99.90;;;;;;5052785;28;20216;-56
2022/11/17 10:18:50;;;;;;;2.37;0.70;;;14.90;99.90;;;;;;5052724;28;20540;-56
2022/11/17 10:21:17;;;;;;;1.80;0.90;;;14.90;99.90;;;;;;5052677;28;20239;-55
2022/11/17 10:23:55;;;;;;;4.23;0.77;;;15.00;99.90;;;;;;5052479;28;20209;-56
2022/11/17 10:26:21;;;;;;;3.03;1.10;;;15.10;99.90;;;;;;5052826;28;20205;-55
2022/11/17 10:29:04;;;;;;;4.53;1.20;;;15.20;99.90;;;;;;5052251;28;20304;-56
2022/11/17 10:31:40;;;;;;;3.67;1.10;;;15.40;99.90;;;;;;5053101;28;20296;-56
2022/11/17 10:34:10;;;;;;;4.53;1.07;;;15.60;99.90;;;;;;5046958;28;20232;-56
2022/11/17 10:36:45;;;;;;;3.03;0.80;;;15.70;99.90;;;;;;5069599;28;20216;-56
2022/11/17 10:39:33;;;;;;;3.28;0.73;;;15.80;99.90;;;;;;5071773;28;20240;-57
2022/11/17 10:42:17;;;;;;;3.55;1.10;;;16.10;99.90;;;;;;5071949;28;20205;-56
2022/11/17 10:44:50;;;;;;;2.23;1.00;;;16.20;99.90;;;;;;5071084;28;20209;-56
2022/11/17 10:47:29;;;;;;;4.13;0.80;;;16.30;99.90;;;;;;5071734;28;20898;-63
2022/11/17 10:50:24;;;;;;;3.03;1.40;;;16.40;99.90;;;;;;5071654;28;20297;-58
2022/11/17 10:52:52;;;;;;;5.40;1.13;;;16.30;99.90;;;;;;5070597;28;20201;-60
2022/11/17 10:55:32;;;;;;;2.17;0.80;;;16.40;99.90;;;;;;5076066;28;20225;-61
2022/11/17 10:58:08;;;;;;;2.92;0.95;;;16.60;99.90;;;;;;5075359;28;20215;-60
2022/11/17 11:00:36;;;;;;;2.72;1.10;;;16.50;99.90;;;;;;5075448;28;20240;-60
2022/11/17 11:03:06;;;;;;;5.13;1.67;;;16.40;99.90;;;;;;5075367;28;20208;-60
2022/11/17 11:05:33;;;;;;;4.93;1.45;;;16.40;99.90;;;;;;5076144;28;20208;-59
2022/11/17 11:08:18;;;;;;;4.13;1.60;;;16.40;99.90;;;;;;5075749;28;20215;-60
2022/11/17 11:10:50;;;;;;;4.95;2.10;;;16.40;99.90;;;;;;5075799;28;20308;-62
2022/11/17 11:13:25;;;;;;;4.05;1.13;;;16.40;99.90;;;;;;5075141;28;20313;-59
2022/11/17 11:15:53;;;;;;;3.65;1.02;;;16.60;99.90;;;;;;5075520;28;20268;-59
2022/11/17 11:18:21;;;;;;;3.00;1.30;;;16.70;99.90;;;;;;5074806;28;20746;-60
2022/11/17 11:20:55;;;;;;;5.80;1.77;;;16.80;99.90;;;;;;5073984;28;20231;-59
2022/11/17 11:23:35;;;;;;;6.28;1.30;;;16.90;99.90;;;;;;5074094;28;20204;-60
2022/11/17 11:26:13;;;;;;;3.45;1.00;;;17.20;99.90;;;;;;5074910;28;20265;-60
2022/11/17 11:28:57;;;;;;;7.80;1.88;;;17.30;99.90;;;;;;5074777;28;20211;-59
2022/11/17 11:31:31;;;;;;;7.22;1.48;;;17.20;99.90;;;;;;5073435;28;20207;-60
2022/11/17 11:34:14;;;;;;;2.58;1.30;;;17.10;99.90;;;;;;5073333;28;20224;-59
2022/11/17 11:36:44;;;;;;;5.18;1.55;;;17.10;99.90;;;;;;5073884;28;20291;-59
2022/11/17 11:39:22;;;;;;;3.85;1.20;;;17.00;99.90;;;;;;5073866;28;20271;-59
2022/11/17 11:42:03;;;;;;;5.13;1.50;;;17.00;99.90;;;;;;5074107;28;20254;-60
2022/11/17 11:44:57;;;;;;;4.07;1.20;;;17.10;99.90;;;;;;5072948;28;20223;-60
2022/11/17 11:47:39;;;;;;;2.60;1.45;;;17.30;99.90;;;;;;5074475;28;20209;-60
2022/11/17 11:50:14;;;;;;;6.80;2.03;;;17.30;99.90;;;;;;5074542;28;20328;-60
2022/11/17 11:52:47;;;;;;;5.63;1.20;;;17.20;99.90;;;;;;5054489;28;20296;-60
2022/11/17 11:55:20;;;;;;;3.50;1.13;;;17.10;99.90;;;;;;5045158;28;20517;-59
2022/11/17 11:57:55;;;;;;;4.30;1.35;;;16.90;99.90;;;;;;5052945;28;20301;-59
2022/11/17 12:00:22;;;;;;;5.35;1.48;;;16.90;99.90;;;;;;5052434;28;20593;-60
2022/11/17 12:02:54;;;;;;;2.47;0.85;;;16.80;99.90;;;;;;5052559;28;20206;-60
2022/11/17 12:05:28;;;;;;;1.90;0.80;;;16.80;99.90;;;;;;5052947;28;20202;-59
2022/11/17 12:08:04;;;;;;;5.20;1.25;;;16.80;99.90;;;;;;5052456;28;20268;-57
2022/11/17 12:10:37;;;;;;;4.38;1.13;;;16.90;99.90;;;;;;5052745;28;20296;-58
2022/11/17 12:13:06;;;;;;;3.33;1.10;;;16.90;99.90;;;;;;5052545;28;20301;-59
2022/11/17 12:15:37;;;;;;;4.65;0.98;;;17.10;99.90;;;;;;5055001;28;20316;-58
2022/11/17 12:18:10;;;;;;;5.25;1.60;;;17.30;99.90;;;;;;5055093;28;20222;-57
2022/11/17 12:20:54;;;;;;;4.93;1.80;;;17.10;99.90;;;;;;5054096;28;20667;-57
2022/11/17 12:23:32;;;;;;;6.18;1.80;;;16.80;99.90;;;;;;5053477;28;20577;-57
2022/11/17 12:26:00;;;;;;;2.85;1.08;;;16.70;99.90;;;;;;5043820;28;20213;-60
2022/11/17 12:28:32;;;;;;;2.65;1.15;;;16.60;99.90;;;;;;5058446;28;20570;-59
2022/11/17 12:31:01;;;;;;;4.03;1.33;;;16.60;99.90;;;;;;5051688;28;20355;-58
2022/11/17 12:34:07;;;;;;;5.03;1.50;;;16.70;99.90;;;;;;5053107;28;20232;-59
2022/11/17 12:36:35;;;;;;;5.00;1.20;;;16.70;99.90;;;;;;5053855;28;20220;-60
2022/11/17 12:39:05;;;;;;;1.00;0.70;;;16.60;99.90;;;;;;5053975;28;20241;-56
2022/11/17 12:42:04;;;;;;;5.35;1.20;;;16.40;99.90;;;;;;5053914;28;20216;-55
2022/11/17 12:44:50;;;;;;;6.65;1.77;;;16.20;99.90;;;;;;5053524;28;20206;-56
2022/11/17 12:47:20;;;;;;;3.00;0.88;;;16.30;99.90;;;;;;5054210;28;20588;-56
2022/11/17 12:50:00;;;;;;;4.93;1.20;;;16.30;99.90;;;;;;5054037;28;20241;-56
2022/11/17 12:52:34;;;;;;;3.70;1.15;;;16.20;99.90;;;;;;5052817;28;20423;-56
2022/11/17 12:55:12;;;;;;;4.30;1.25;;;16.20;99.90;;;;;;5053577;28;20232;-56
2022/11/17 12:57:39;;;;;;;3.25;1.40;;;16.20;99.90;;;;;;5043320;28;20251;-60
2022/11/17 13:00:14;;;;;;;4.72;1.35;;;16.40;99.90;;;;;;5051268;28;20221;-57
2022/11/17 13:02:58;;;;;;;7.35;2.58;;;16.60;99.90;;;;;;5052006;28;20232;-57
2022/11/17 13:05:27;;;;;;;5.72;1.60;;;16.80;99.90;;;;;;5053684;28;20206;-57
2022/11/17 13:08:21;;;;;;;6.40;2.03;;;17.00;99.90;;;;;;5053865;28;20284;-57
2022/11/17 13:10:48;;;;;;;3.90;1.10;;;17.30;99.90;;;;;;5053342;28;20226;-57
2022/11/17 13:13:18;;;;;;;5.45;1.80;;;17.30;99.90;;;;;;5053432;28;20668;-58
2022/11/17 13:15:49;;;;;;;5.78;1.50;;;17.30;99.90;;;;;;5053265;28;20271;-56
2022/11/17 13:18:29;;;;;;;4.50;1.70;;;17.10;99.90;;;;;;5053428;28;20287;-57
2022/11/17 13:20:56;;;;;;;5.50;1.60;;;16.90;99.90;;;;;;5053366;28;20606;-57
2022/11/17 13:23:25;;;;;;;6.03;1.67;;;16.60;99.90;;;;;;5052657;28;20206;-56
2022/11/17 13:26:08;;;;;;;4.07;1.48;;;16.50;99.90;;;;;;5053296;28;20210;-56
2022/11/17 13:28:35;;;;;;;5.28;1.65;;;16.50;99.90;;;;;;5053321;28;20214;-56
2022/11/17 13:31:03;;;;;;;4.80;1.83;;;16.40;99.90;;;;;;5053103;28;20567;-56
2022/11/17 13:33:31;;;;;;;6.38;1.60;;;16.30;99.90;;;;;;5052920;28;20216;-56